Time;durP1;ratioP1;P1;durP2;ratioP2;P2;SDS_P1;SDS_P2;PMS_P1;PMS_P2;Temp;Humidity;BMP_temperature;BMP_pressure;BME280_temperature;BME280_humidity;BME280_pressure;Samples;Min_cycle;Max_cycle;Signal;HPM_P1;HPM_P2
2022/12/02 00:02:34;;;;;;;54.20;11.45;;;;;;;2.24;100.00;102473.50;6320956;28;20435;-70
2022/12/02 00:05:36;;;;;;;59.53;13.70;;;;;;;2.25;100.00;102468.31;6321226;28;20094;-70
2022/12/02 00:08:39;;;;;;;68.50;13.20;;;;;;;2.23;100.00;102464.00;6320965;28;20729;-69
2022/12/02 00:11:41;;;;;;;41.55;10.15;;;;;;;2.21;100.00;102465.69;6320796;28;20505;-70
2022/12/02 00:14:43;;;;;;;34.15;8.75;;;;;;;2.20;100.00;102462.22;6320893;28;20048;-70
2022/12/02 00:17:44;;;;;;;40.67;11.38;;;;;;;2.28;100.00;102468.38;6322145;28;20116;-69
2022/12/02 00:20:46;;;;;;;53.97;11.77;;;;;;;2.22;100.00;102462.22;6326001;28;20054;-70
2022/12/02 00:23:49;;;;;;;35.95;11.38;;;;;;;2.19;100.00;102457.91;6325914;28;20105;-70
2022/12/02 00:26:50;;;;;;;38.50;10.52;;;;;;;2.26;100.00;102461.41;6325995;28;20052;-70
2022/12/02 00:29:52;;;;;;;42.78;10.68;;;;;;;2.22;100.00;102464.81;6325651;28;20040;-70
2022/12/02 00:32:53;;;;;;;42.10;10.65;;;;;;;2.23;100.00;102461.41;6325583;28;20419;-70
2022/12/02 00:35:55;;;;;;;44.53;10.63;;;;;;;2.19;100.00;102465.69;6325421;28;20522;-69
2022/12/02 00:38:58;;;;;;;40.58;10.25;;;;;;;2.24;100.00;102463.13;6325596;28;20044;-70
2022/12/02 00:41:59;;;;;;;43.40;10.75;;;;;;;2.16;100.00;102463.06;6325357;28;20048;-70
2022/12/02 00:48:20;;;;;;;32.40;11.20;;;;;;;2.11;100.00;102464.75;6325487;28;20051;-69
2022/12/02 00:51:21;;;;;;;38.28;8.82;;;;;;;2.13;100.00;102457.84;6325231;28;20048;-70
2022/12/02 00:54:24;;;;;;;37.47;10.98;;;;;;;2.14;100.00;102448.34;6324920;28;20052;-70
2022/12/02 00:57:25;;;;;;;33.97;9.60;;;;;;;2.21;100.00;102457.91;6325089;28;20499;-70
2022/12/02 01:00:27;;;;;;;34.15;9.95;;;;;;;2.20;100.00;102459.63;6325103;28;20054;-70
2022/12/02 01:03:28;;;;;;;32.42;10.90;;;;;;;2.25;100.00;102451.91;6324877;28;20407;-70
2022/12/02 01:06:30;;;;;;;40.53;11.35;;;;;;;2.19;100.00;102452.72;6325108;28;20044;-70
2022/12/02 01:09:32;;;;;;;30.08;8.65;;;;;;;2.20;100.00;102454.44;6324720;28;20044;-69
2022/12/02 01:12:34;;;;;;;30.30;9.15;;;;;;;2.20;100.00;102453.59;6324891;28;20048;-70
2022/12/02 01:15:35;;;;;;;39.30;10.38;;;;;;;2.25;100.00;102444.13;6324489;28;20500;-69
2022/12/02 01:18:37;;;;;;;33.47;10.52;;;;;;;2.19;100.00;102446.66;6324674;28;20059;-70
2022/12/02 01:21:38;;;;;;;28.35;9.50;;;;;;;2.18;100.00;102437.13;6324245;28;20515;-69
2022/12/02 01:24:41;;;;;;;30.20;8.85;;;;;;;2.19;100.00;102436.28;6324422;28;20048;-69
2022/12/02 01:27:42;;;;;;;35.25;11.68;;;;;;;2.12;100.00;102434.50;6324564;28;20074;-69
2022/12/02 01:30:44;;;;;;;33.55;9.13;;;;;;;2.06;100.00;102429.25;6324132;28;20059;-70
2022/12/02 01:33:45;;;;;;;32.22;8.88;;;;;;;1.96;100.00;102431.78;6324312;28;20048;-70
2022/12/02 01:36:47;;;;;;;35.38;9.00;;;;;;;1.99;100.00;102436.09;6324075;28;20052;-70
2022/12/02 01:39:49;;;;;;;22.67;7.70;;;;;;;2.06;100.00;102432.72;6324175;28;20058;-69
2022/12/02 01:42:51;;;;;;;22.15;7.97;;;;;;;1.95;100.00;102430.03;6323980;28;20048;-70
2022/12/02 01:45:53;;;;;;;28.40;6.80;;;;;;;1.91;100.00;102427.41;6323957;28;20523;-70
2022/12/02 01:48:55;;;;;;;23.10;6.22;;;;;;;1.98;100.00;102424.88;6323936;28;20044;-69
2022/12/02 01:51:56;;;;;;;30.70;7.95;;;;;;;1.92;100.00;102427.41;6323984;28;20052;-70
2022/12/02 01:54:59;;;;;;;28.38;8.45;;;;;;;1.81;100.00;102425.56;6323556;28;20086;-69
2022/12/02 01:58:01;;;;;;;24.15;7.18;;;;;;;1.87;100.00;102420.44;6323661;28;20048;-70
2022/12/02 02:01:03;;;;;;;32.10;7.80;;;;;;;1.85;100.00;102424.72;6323728;28;20055;-69
2022/12/02 02:04:05;;;;;;;26.80;6.80;;;;;;;1.88;100.00;102422.19;6323272;28;20055;-69
2022/12/02 02:07:06;;;;;;;23.23;7.45;;;;;;;1.81;100.00;102429.00;6323776;28;20048;-69
2022/12/02 02:10:10;;;;;;;24.90;6.97;;;;;;;1.88;100.00;102423.03;6323221;28;20067;-69
2022/12/02 02:13:15;;;;;;;20.85;6.55;;;;;;;1.94;100.00;102420.50;6323583;28;20047;-70
2022/12/02 02:16:17;;;;;;;31.20;8.43;;;;;;;1.95;100.00;102419.66;6323113;28;20048;-70
2022/12/02 02:19:18;;;;;;;27.00;8.05;;;;;;;1.84;100.00;102413.50;6323404;28;20059;-70
2022/12/02 02:22:25;;;;;;;31.30;8.75;;;;;;;1.82;100.00;102414.31;6322849;28;20044;-70
2022/12/02 02:25:28;;;;;;;27.15;8.18;;;;;;;1.81;100.00;102420.38;6323201;28;20524;-69
2022/12/02 02:28:30;;;;;;;26.20;7.93;;;;;;;1.77;100.00;102419.47;6323049;28;20048;-69
2022/12/02 02:31:31;;;;;;;33.50;9.25;;;;;;;1.77;100.00;102417.78;6322945;28;20048;-70
2022/12/02 02:34:33;;;;;;;29.23;7.68;;;;;;;1.87;100.00;102417.84;6322936;28;20051;-69
2022/12/02 02:37:34;;;;;;;38.78;9.20;;;;;;;1.75;100.00;102409.09;6322923;28;20048;-69
2022/12/02 02:40:38;;;;;;;40.42;9.60;;;;;;;1.85;100.00;102411.78;6321852;28;20055;-70
2022/12/02 02:43:39;;;;;;;34.80;9.13;;;;;;;1.88;100.00;102410.09;6322455;28;20062;-70
2022/12/02 02:46:41;;;;;;;38.35;9.50;;;;;;;1.85;100.00;102410.03;6322577;28;20522;-70
2022/12/02 02:49:42;;;;;;;33.40;9.40;;;;;;;1.95;100.00;102406.72;6322348;28;20055;-69
2022/12/02 02:52:44;;;;;;;32.97;7.78;;;;;;;1.97;100.00;102412.75;6322718;28;20055;-69
2022/12/02 02:55:47;;;;;;;32.22;8.65;;;;;;;2.00;100.00;102402.44;6322063;28;20048;-69
2022/12/02 02:58:48;;;;;;;33.85;8.55;;;;;;;1.92;100.00;102393.72;6322367;28;20052;-69
2022/12/02 03:01:51;;;;;;;33.33;8.80;;;;;;;1.93;100.00;102398.03;6322125;28;20044;-69
2022/12/02 03:04:53;;;;;;;35.58;9.18;;;;;;;1.91;100.00;102397.16;6321828;28;20055;-69
2022/12/02 03:07:54;;;;;;;30.00;8.90;;;;;;;1.92;100.00;102391.13;6322084;28;20420;-69
2022/12/02 03:11:00;;;;;;;33.85;8.80;;;;;;;1.82;100.00;102384.13;6321695;28;20048;-68
2022/12/02 03:14:03;;;;;;;21.67;6.70;;;;;;;1.91;100.00;102385.94;6321948;28;20044;-69
2022/12/02 03:17:05;;;;;;;41.72;9.25;;;;;;;1.93;100.00;102386.78;6321753;28;20500;-69
2022/12/02 03:20:07;;;;;;;27.73;8.18;;;;;;;1.93;100.00;102386.78;6321667;28;20102;-68
2022/12/02 03:23:09;;;;;;;22.40;6.40;;;;;;;1.84;100.00;102384.13;6321499;28;20435;-69
2022/12/02 03:26:12;;;;;;;27.08;7.80;;;;;;;1.89;100.00;102382.44;6321776;28;20059;-69
2022/12/02 03:29:14;;;;;;;24.73;7.38;;;;;;;1.90;100.00;102377.25;6321590;28;20642;-69
2022/12/02 03:32:16;;;;;;;22.65;8.00;;;;;;;1.86;100.00;102372.03;6321240;28;20527;-69
2022/12/02 03:35:18;;;;;;;28.92;7.82;;;;;;;1.81;100.00;102376.31;6321520;28;20052;-69
2022/12/02 03:38:20;;;;;;;33.03;8.38;;;;;;;1.77;100.00;102372.81;6320508;28;20044;-69
2022/12/02 03:41:24;;;;;;;26.10;6.93;;;;;;;1.80;100.00;102372.84;6321353;28;20047;-69
2022/12/02 03:44:26;;;;;;;28.67;6.53;;;;;;;1.76;100.00;102373.69;6321302;28;20048;-69
2022/12/02 03:47:27;;;;;;;29.50;7.13;;;;;;;1.70;100.00;102371.91;6321440;28;20055;-69
2022/12/02 03:50:29;;;;;;;28.55;6.25;;;;;;;1.70;100.00;102373.63;6321306;28;20051;-69
2022/12/02 03:53:30;;;;;;;31.75;7.07;;;;;;;1.67;100.00;102363.22;6321049;28;20055;-69
2022/12/02 03:56:38;;;;;;;26.33;8.52;;;;;;;1.72;100.00;102364.13;6321109;28;20048;-69
2022/12/02 03:59:39;;;;;;;27.13;7.45;;;;;;;1.79;100.00;102360.75;6321134;28;20055;-69
2022/12/02 04:02:41;;;;;;;30.27;8.10;;;;;;;1.85;100.00;102357.34;6321224;28;20056;-69
2022/12/02 04:05:42;;;;;;;22.48;7.72;;;;;;;1.84;100.00;102360.78;6321011;28;20054;-69
2022/12/02 04:08:44;;;;;;;27.73;7.68;;;;;;;1.84;100.00;102371.16;6321435;28;20047;-69
2022/12/02 04:11:46;;;;;;;29.98;9.00;;;;;;;1.85;100.00;102367.72;6320950;28;20054;-69
2022/12/02 04:14:48;;;;;;;30.90;8.48;;;;;;;1.87;100.00;102363.41;6320805;28;20052;-69
2022/12/02 04:17:49;;;;;;;27.33;7.22;;;;;;;1.78;100.00;102359.03;6321005;28;20434;-69
2022/12/02 04:20:51;;;;;;;34.10;8.13;;;;;;;1.78;100.00;102354.72;6320649;28;20048;-68
2022/12/02 04:23:52;;;;;;;36.15;10.50;;;;;;;1.83;100.00;102359.94;6320912;28;20051;-69
2022/12/02 04:26:55;;;;;;;27.42;7.20;;;;;;;1.78;100.00;102357.31;6320854;28;20052;-68
2022/12/02 04:29:57;;;;;;;22.15;6.15;;;;;;;1.65;100.00;102364.94;6321017;28;20040;-69
2022/12/02 04:32:58;;;;;;;36.65;7.78;;;;;;;1.68;100.00;102357.19;6320802;28;20052;-69
2022/12/02 04:36:00;;;;;;;39.00;8.20;;;;;;;1.64;100.00;102355.44;6320901;28;20059;-69
2022/12/02 04:39:01;;;;;;;26.65;8.68;;;;;;;1.75;100.00;102352.06;6320796;28;20044;-69
2022/12/02 04:42:04;;;;;;;22.75;5.63;;;;;;;1.80;100.00;102352.13;6320685;28;20048;-69
2022/12/02 04:45:06;;;;;;;29.75;7.70;;;;;;;1.69;100.00;102346.84;6320747;28;20048;-69
2022/12/02 04:48:08;;;;;;;30.88;7.95;;;;;;;1.60;100.00;102340.72;6320521;28;20048;-69
2022/12/02 04:51:09;;;;;;;22.00;5.43;;;;;;;1.60;100.00;102344.19;6320682;28;20054;-69
2022/12/02 04:54:11;;;;;;;19.80;6.88;;;;;;;1.73;100.00;102346.03;6320224;28;20059;-69
2022/12/02 04:57:13;;;;;;;24.00;6.97;;;;;;;1.71;100.00;102344.25;6320801;28;20051;-69
2022/12/02 05:00:16;;;;;;;34.90;6.85;;;;;;;1.61;100.00;102348.50;6320143;28;20515;-68
2022/12/02 05:03:17;;;;;;;27.02;6.57;;;;;;;1.67;100.00;102345.09;6320911;28;20054;-69
2022/12/02 05:06:19;;;;;;;27.38;7.40;;;;;;;1.64;100.00;102342.50;6325045;28;20051;-69
2022/12/02 05:09:20;;;;;;;23.15;7.93;;;;;;;1.58;100.00;102345.88;6324922;28;20518;-69
2022/12/02 05:12:23;;;;;;;20.92;7.80;;;;;;;1.63;100.00;102349.38;6324849;28;20044;-69
2022/12/02 05:15:24;;;;;;;24.27;8.25;;;;;;;1.65;100.00;102346.81;6324562;28;20059;-69
2022/12/02 05:18:26;;;;;;;25.70;7.45;;;;;;;1.58;100.00;102343.28;6324789;28;20048;-68
2022/12/02 05:21:27;;;;;;;30.38;7.60;;;;;;;1.59;100.00;102349.31;6324460;28;20048;-69
2022/12/02 05:24:28;;;;;;;35.80;10.45;;;;;;;1.57;100.00;102344.13;6324524;28;20048;-69
2022/12/02 05:27:31;;;;;;;33.67;8.15;;;;;;;1.59;100.00;102346.72;6324517;28;20434;-69
2022/12/02 05:30:33;;;;;;;30.67;8.75;;;;;;;1.62;100.00;102349.34;6324253;28;20427;-69
2022/12/02 05:33:34;;;;;;;30.50;8.68;;;;;;;1.55;100.00;102347.59;6324269;28;20491;-69
2022/12/02 05:36:36;;;;;;;30.73;9.07;;;;;;;1.57;100.00;102341.53;6324334;28;20067;-69
2022/12/02 05:39:37;;;;;;;24.00;8.82;;;;;;;1.56;100.00;102338.94;6324159;28;20040;-69
2022/12/02 05:42:41;;;;;;;35.75;10.65;;;;;;;1.53;100.00;102343.22;6327498;28;20044;-69
2022/12/02 05:45:43;;;;;;;30.75;9.48;;;;;;;1.55;100.00;102338.09;6341296;28;20047;-68
2022/12/02 05:48:45;;;;;;;32.30;10.77;;;;;;;1.62;100.00;102344.19;6339246;28;20055;-69
2022/12/02 05:51:50;;;;;;;49.85;10.73;;;;;;;1.58;100.00;102342.41;6349068;28;20055;-69
2022/12/02 05:54:54;;;;;;;34.30;9.82;;;;;;;1.53;100.00;102345.81;6349210;28;20059;-69
2022/12/02 05:58:00;;;;;;;29.05;9.80;;;;;;;1.52;100.00;102345.81;6349160;28;20044;-69
2022/12/02 06:01:02;;;;;;;34.15;9.90;;;;;;;1.58;100.00;102345.88;6348818;28;20410;-69
2022/12/02 06:04:03;;;;;;;35.75;9.48;;;;;;;1.55;100.00;102351.03;6348840;28;20092;-69
2022/12/02 06:07:13;;;;;;;27.85;8.88;;;;;;;1.51;100.00;102346.69;6348880;28;20666;-69
2022/12/02 06:10:25;;;;;;;;;;;;;;;1.48;100.00;102360.47;6339173;28;20044;-69
2022/12/02 06:13:31;;;;;;;35.67;12.50;;;;;;;1.43;100.00;102353.50;6334660;28;20049;-69
2022/12/02 06:16:33;;;;;;;30.52;9.82;;;;;;;1.50;100.00;102352.72;6333133;28;20048;-69
2022/12/02 06:19:43;;;;;;;40.83;13.52;;;;;;;1.44;100.00;102350.91;6330023;28;20048;-69
2022/12/02 06:22:44;;;;;;;35.60;11.35;;;;;;;1.50;100.00;102351.00;6332073;28;20044;-69
2022/12/02 06:25:47;;;;;;;42.03;12.57;;;;;;;1.52;100.00;102354.44;6334369;28;20051;-69
2022/12/02 06:28:52;;;;;;;42.33;13.48;;;;;;;1.54;100.00;102357.06;6333203;28;20092;-68
2022/12/02 06:31:54;;;;;;;37.42;11.68;;;;;;;1.45;100.00;102354.38;6330004;28;20040;-69
2022/12/02 06:34:55;;;;;;;45.10;14.23;;;;;;;1.47;100.00;102356.13;6334741;28;20104;-69
2022/12/02 06:38:00;;;;;;;46.50;13.25;;;;;;;1.45;100.00;102354.38;6333095;28;20411;-69
2022/12/02 06:41:12;;;;;;;44.00;12.23;;;;;;;1.49;100.00;102357.00;6333643;28;20048;-69
2022/12/02 06:47:48;;;;;;;39.00;13.05;;;;;;;1.37;100.00;102356.03;6333835;28;20056;-68
2022/12/02 06:50:50;;;;;;;42.70;13.95;;;;;;;1.35;100.00;102356.00;6330864;28;20123;-69
2022/12/02 06:53:51;;;;;;;49.03;15.20;;;;;;;1.40;100.00;102356.91;6333588;28;20051;-68
2022/12/02 06:56:53;;;;;;;55.22;15.07;;;;;;;1.46;100.00;102357.00;6333255;28;20134;-69
2022/12/02 06:59:55;;;;;;;44.20;12.57;;;;;;;1.48;100.00;102352.69;6332922;28;20043;-69
2022/12/02 07:02:57;;;;;;;43.10;13.98;;;;;;;1.46;100.00;102358.72;6324517;28;20052;-68
2022/12/02 07:06:10;;;;;;;40.88;13.88;;;;;;;1.50;100.00;102347.53;6322173;28;20043;-69
2022/12/02 07:09:16;;;;;;;58.42;13.65;;;;;;;1.45;100.00;102344.91;6322204;28;20047;-69
2022/12/02 07:12:20;;;;;;;54.38;17.65;;;;;;;1.46;100.00;102346.63;6322009;28;20048;-69
2022/12/02 07:15:28;;;;;;;56.85;14.93;;;;;;;1.43;100.00;102346.59;6321703;28;20052;-69
2022/12/02 07:18:30;;;;;;;41.60;14.18;;;;;;;1.38;100.00;102355.19;6322010;28;20420;-69
2022/12/02 07:21:31;;;;;;;33.83;13.13;;;;;;;1.47;100.00;102356.13;6321552;28;20131;-69
2022/12/02 07:24:33;;;;;;;38.67;14.07;;;;;;;1.45;100.00;102351.78;6321630;28;20430;-68
2022/12/02 07:27:37;;;;;;;44.50;13.25;;;;;;;1.36;100.00;102354.28;6321374;28;20067;-69
2022/12/02 07:30:42;;;;;;;43.55;13.70;;;;;;;1.37;100.00;102350.84;6321498;28;20059;-69
2022/12/02 07:33:43;;;;;;;49.20;14.88;;;;;;;1.45;100.00;102357.84;6321458;28;20048;-69
2022/12/02 07:36:44;;;;;;;50.75;15.35;;;;;;;1.53;100.00;102357.91;6321446;28;20423;-69
2022/12/02 07:39:46;;;;;;;40.25;13.10;;;;;;;1.44;100.00;102355.22;6321418;28;20048;-69
2022/12/02 07:42:47;;;;;;;43.20;14.43;;;;;;;1.47;100.00;102353.53;6321196;28;20419;-69
2022/12/02 07:45:50;;;;;;;45.15;13.75;;;;;;;1.52;100.00;102349.28;6321503;28;20054;-69
2022/12/02 07:48:51;;;;;;;42.60;15.18;;;;;;;1.53;100.00;102357.91;6321271;28;20052;-69
2022/12/02 07:51:53;;;;;;;49.42;14.77;;;;;;;1.49;100.00;102364.78;6321346;28;20058;-69
2022/12/02 07:54:54;;;;;;;50.63;13.45;;;;;;;1.49;100.00;102363.91;6320990;28;20062;-69
2022/12/02 07:57:56;;;;;;;39.55;12.38;;;;;;;1.47;100.00;102363.03;6321182;28;20426;-69
2022/12/02 08:00:59;;;;;;;41.00;13.40;;;;;;;1.47;100.00;102363.03;6317454;28;20040;-69
2022/12/02 08:04:00;;;;;;;48.25;14.85;;;;;;;1.50;100.00;102365.66;6316004;28;20502;-69
2022/12/02 08:07:02;;;;;;;40.03;12.48;;;;;;;1.49;100.00;102358.72;6320582;28;20427;-69
2022/12/02 08:10:04;;;;;;;37.28;13.98;;;;;;;1.47;100.00;102358.72;6320823;28;20048;-69
2022/12/02 08:13:05;;;;;;;50.03;15.05;;;;;;;1.38;100.00;102357.75;6320842;28;20044;-69
2022/12/02 08:16:10;;;;;;;42.17;15.07;;;;;;;1.45;100.00;102357.84;6320405;28;20133;-68
2022/12/02 08:19:11;;;;;;;40.97;12.52;;;;;;;1.57;100.00;102366.59;6320697;28;20139;-69
2022/12/02 08:22:13;;;;;;;54.22;16.15;;;;;;;1.55;100.00;102363.13;6320442;28;20515;-68
2022/12/02 08:25:14;;;;;;;49.88;14.60;;;;;;;1.48;100.00;102364.78;6342173;28;20050;-68
2022/12/02 08:28:16;;;;;;;40.92;14.50;;;;;;;1.44;100.00;102369.03;6342014;28;20397;-68
2022/12/02 08:31:19;;;;;;;40.00;14.07;;;;;;;1.43;100.00;102366.44;6327231;28;20434;-68
2022/12/02 08:34:20;;;;;;;38.08;12.38;;;;;;;1.44;100.00;102363.88;6325278;28;20490;-68
2022/12/02 08:37:22;;;;;;;43.70;14.52;;;;;;;1.46;100.00;102367.34;6298192;28;20048;-68
2022/12/02 08:40:23;;;;;;;41.22;13.75;;;;;;;1.51;100.00;102367.41;6299028;28;20053;-68
2022/12/02 08:43:25;;;;;;;44.95;14.18;;;;;;;1.55;100.00;102369.19;6300325;28;20059;-68
2022/12/02 08:46:28;;;;;;;39.10;14.70;;;;;;;1.55;100.00;102370.91;6300237;28;20047;-69
2022/12/02 08:49:29;;;;;;;41.25;13.10;;;;;;;1.54;100.00;102375.19;6300252;28;20094;-69
2022/12/02 08:52:31;;;;;;;36.70;14.18;;;;;;;1.43;100.00;102369.91;6289676;22;20417;-69
2022/12/02 08:55:32;;;;;;;44.15;13.25;;;;;;;1.49;100.00;102375.13;6225501;28;20056;-69
2022/12/02 08:58:34;;;;;;;39.28;13.88;;;;;;;1.54;100.00;102367.41;6246823;28;20049;-69
2022/12/02 09:01:36;;;;;;;45.55;15.77;;;;;;;1.55;100.00;102374.34;6257785;28;20046;-69
2022/12/02 09:04:38;;;;;;;42.50;14.20;;;;;;;1.59;100.00;102380.41;6250096;28;20056;-68
2022/12/02 09:07:40;;;;;;;40.05;14.60;;;;;;;1.55;100.00;102379.53;6249941;28;20519;-69
2022/12/02 09:10:42;;;;;;;39.40;14.35;;;;;;;1.61;100.00;102378.72;6250038;28;20053;-69
2022/12/02 09:13:43;;;;;;;41.22;14.95;;;;;;;1.66;100.00;102384.81;6249953;28;20049;-69
2022/12/02 09:16:46;;;;;;;25.40;11.93;;;;;;;1.47;100.00;102379.44;6250262;28;20056;-68
2022/12/02 09:19:47;;;;;;;36.63;14.45;;;;;;;1.63;100.00;102390.81;6249545;28;20056;-69
2022/12/02 09:22:49;;;;;;;42.85;14.98;;;;;;;1.67;100.00;102389.13;6249931;28;20079;-68
2022/12/02 09:25:50;;;;;;;40.60;14.25;;;;;;;1.69;100.00;102388.31;6249874;28;20054;-68
2022/12/02 09:28:52;;;;;;;36.25;12.93;;;;;;;1.76;100.00;102389.22;6263543;28;20056;-68
2022/12/02 09:31:55;;;;;;;32.40;12.85;;;;;;;1.69;100.00;102388.31;6263597;28;20060;-68
2022/12/02 09:34:56;;;;;;;32.67;10.80;;;;;;;1.72;100.00;102396.09;6268130;28;20522;-69
2022/12/02 09:37:57;;;;;;;42.30;14.20;;;;;;;1.76;100.00;102391.81;6274146;28;20045;-68
2022/12/02 09:41:00;;;;;;;39.25;13.05;;;;;;;1.76;100.00;102389.22;6262507;28;20075;-68
2022/12/02 09:44:01;;;;;;;38.20;13.88;;;;;;;1.84;100.00;102382.41;6273499;28;20049;-69
2022/12/02 09:47:05;;;;;;;37.40;11.25;;;;;;;1.87;100.00;102391.94;6274076;28;20060;-68
2022/12/02 09:50:10;;;;;;;30.60;10.23;;;;;;;1.84;100.00;102391.91;6273488;28;20053;-68
2022/12/02 09:53:14;;;;;;;31.35;11.25;;;;;;;1.85;100.00;102384.13;6273774;28;20045;-68
2022/12/02 09:56:18;;;;;;;46.75;14.88;;;;;;;1.85;100.00;102391.03;6270283;28;20059;-68
2022/12/02 09:59:21;;;;;;;35.03;11.20;;;;;;;1.75;100.00;102388.34;6262475;28;20571;-69
2022/12/02 10:02:28;;;;;;;43.17;14.13;;;;;;;1.82;100.00;102398.78;6273480;28;20056;-69
2022/12/02 10:05:32;;;;;;;33.65;13.88;;;;;;;1.86;100.00;102387.59;6273656;28;20055;-69
2022/12/02 10:08:34;;;;;;;37.10;13.88;;;;;;;1.90;100.00;102385.03;6273494;28;20059;-69
2022/12/02 10:11:36;;;;;;;29.95;11.55;;;;;;;1.94;100.00;102391.13;6249844;28;20049;-68
2022/12/02 10:14:38;;;;;;;39.30;13.70;;;;;;;1.97;100.00;102380.78;6248497;28;20050;-69
2022/12/02 10:17:43;;;;;;;37.88;13.23;;;;;;;1.98;100.00;102388.56;6248607;28;20053;-69
2022/12/02 10:20:45;;;;;;;39.33;12.02;;;;;;;1.96;100.00;102379.06;6248369;28;20045;-76
2022/12/02 10:23:54;;;;;;;36.35;11.15;;;;;;;2.00;100.00;102381.69;6248280;28;20075;-69
2022/12/02 10:26:55;;;;;;;34.42;12.02;;;;;;;1.94;100.00;102376.44;6248449;28;20058;-69
2022/12/02 10:30:15;;;;;;;38.70;12.68;;;;;;;1.88;100.00;102371.19;6248086;28;20053;-69
2022/12/02 10:33:17;;;;;;;;;;;;;;;1.99;100.00;102364.38;6248829;28;20045;-69
2022/12/02 10:36:30;;;;;;;26.48;11.10;;;;;;;1.91;100.00;102360.00;6247815;28;20290;-69
2022/12/02 10:39:33;;;;;;;33.03;12.55;;;;;;;1.90;100.00;102363.44;6246285;28;20045;-69
2022/12/02 10:42:35;;;;;;;39.67;12.73;;;;;;;1.88;100.00;102365.16;6263119;28;20148;-69
2022/12/02 10:45:36;;;;;;;36.15;13.65;;;;;;;1.88;100.00;102358.25;6271418;28;20049;-69
2022/12/02 10:48:39;;;;;;;40.92;13.73;;;;;;;1.87;100.00;102366.88;6263812;28;20059;-69
2022/12/02 10:51:41;;;;;;;37.30;13.95;;;;;;;1.93;100.00;102366.91;6272438;28;20158;-69
2022/12/02 10:54:46;;;;;;;35.22;12.77;;;;;;;1.91;100.00;102365.19;6272017;28;20051;-69
2022/12/02 10:57:50;;;;;;;42.38;13.38;;;;;;;1.91;100.00;102366.06;6272516;28;20507;-68
2022/12/02 11:00:52;;;;;;;36.60;13.82;;;;;;;1.90;100.00;102369.47;6271505;28;20385;-68
2022/12/02 11:03:55;;;;;;;33.42;11.88;;;;;;;1.84;100.00;102360.78;6271948;28;20048;-68
2022/12/02 11:06:56;;;;;;;38.63;14.13;;;;;;;1.91;100.00;102354.81;6270239;28;20053;-69
2022/12/02 11:09:58;;;;;;;33.67;11.98;;;;;;;1.98;100.00;102349.69;6253448;28;20049;-69
2022/12/02 11:13:27;;;;;;;37.55;12.68;;;;;;;2.06;100.00;102354.06;6247252;28;20053;-69
2022/12/02 11:17:03;;;;;;;41.13;13.20;;;;;;;2.12;100.00;102352.38;6271551;28;20079;-69
2022/12/02 11:20:31;;;;;;;38.10;13.77;;;;;;;2.18;100.00;102348.94;6271594;28;20056;-68
2022/12/02 11:23:34;;;;;;;34.38;12.80;;;;;;;2.08;100.00;102349.75;6264780;28;20049;-68
2022/12/02 11:27:07;;;;;;;36.10;12.45;;;;;;;2.19;100.00;102351.56;6253549;28;20440;-68
2022/12/02 11:30:37;;;;;;;37.58;14.43;;;;;;;2.15;100.00;102349.81;6252571;28;20049;-68
2022/12/02 11:34:01;;;;;;;39.15;13.80;;;;;;;2.16;100.00;102353.28;6264628;28;20049;-68
2022/12/02 11:41:02;;;;;;;33.25;11.73;;;;;;;2.13;100.00;102355.84;6368402;27;20108;-70
2022/12/02 11:44:09;;;;;;;33.83;12.40;;;;;;;2.16;100.00;102348.09;6368569;28;20051;-69
2022/12/02 11:47:24;;;;;;;40.13;13.05;;;;;;;2.16;100.00;102345.50;6361023;27;20513;-69
2022/12/02 11:50:27;;;;;;;39.42;14.32;;;;;;;2.18;100.00;102346.34;6364416;27;20036;-69
2022/12/02 11:53:29;;;;;;;39.83;12.50;;;;;;;2.26;100.00;102345.56;6360295;27;20046;-70
2022/12/02 11:56:38;;;;;;;31.80;12.63;;;;;;;2.23;100.00;102348.16;6368194;27;20051;-70
2022/12/02 11:59:41;;;;;;;41.30;13.98;;;;;;;2.09;100.00;102352.38;6368169;27;20410;-70
2022/12/02 12:02:42;;;;;;;34.40;12.73;;;;;;;1.96;100.00;102333.25;6368089;27;20054;-69
2022/12/02 12:06:05;;;;;;;40.78;12.00;;;;;;;1.99;100.00;102334.97;6367995;27;20066;-69
2022/12/02 12:09:11;;;;;;;29.95;10.60;;;;;;;2.13;100.00;102333.34;6367753;27;20055;-69
2022/12/02 12:12:16;;;;;;;31.00;10.40;;;;;;;2.09;100.00;102334.22;6358163;27;20124;-69
2022/12/02 12:15:17;;;;;;;34.55;12.13;;;;;;;2.12;100.00;102336.81;6365906;27;20045;-69
2022/12/02 12:18:36;;;;;;;29.23;11.20;;;;;;;2.17;100.00;102335.13;6359491;27;20507;-69
2022/12/02 12:21:46;;;;;;;36.23;11.57;;;;;;;2.19;100.00;102333.41;6342260;28;20047;-69
2022/12/02 12:24:48;;;;;;;32.67;11.90;;;;;;;2.24;100.00;102336.03;6350008;28;20050;-69
2022/12/02 12:27:50;;;;;;;31.02;12.50;;;;;;;2.19;100.00;102325.63;6360345;27;20428;-69
2022/12/02 12:30:52;;;;;;;32.72;12.20;;;;;;;2.18;100.00;102326.50;6353842;28;20417;-69
2022/12/02 12:33:54;;;;;;;28.42;12.65;;;;;;;2.20;100.00;102329.97;6360797;28;20046;-69
2022/12/02 12:36:55;;;;;;;32.22;11.77;;;;;;;2.16;100.00;102324.75;6361821;27;20040;-69
2022/12/02 12:39:56;;;;;;;30.23;13.13;;;;;;;2.16;100.00;102322.16;6341588;28;20549;-68
2022/12/02 12:42:59;;;;;;;36.47;12.35;;;;;;;2.06;100.00;102320.34;6341781;28;20048;-69
2022/12/02 12:46:01;;;;;;;39.10;12.90;;;;;;;2.08;100.00;102318.63;6341527;28;20509;-69
2022/12/02 12:49:03;;;;;;;35.15;11.15;;;;;;;2.07;100.00;102319.50;6349487;28;20040;-69
2022/12/02 12:52:04;;;;;;;43.10;12.93;;;;;;;1.95;100.00;102322.84;6350248;27;20055;-69
2022/12/02 12:55:06;;;;;;;34.13;12.43;;;;;;;1.92;100.00;102315.94;6347306;28;20047;-69
2022/12/02 12:58:09;;;;;;;38.80;13.95;;;;;;;1.95;100.00;102315.97;6344256;28;20047;-70
2022/12/02 13:01:11;;;;;;;37.13;13.32;;;;;;;1.89;100.00;102317.63;6345243;28;20048;-69
2022/12/02 13:04:12;;;;;;;23.30;9.90;;;;;;;1.94;100.00;102319.41;6346120;28;20052;-70
2022/12/02 13:07:13;;;;;;;37.47;12.15;;;;;;;1.97;100.00;102322.03;6326729;28;20048;-70
2022/12/02 13:10:15;;;;;;;35.78;12.32;;;;;;;1.88;100.00;102318.50;6343413;28;20410;-70
2022/12/02 13:13:18;;;;;;;25.52;10.15;;;;;;;1.95;100.00;102312.47;6344331;28;20047;-70
2022/12/02 13:16:19;;;;;;;26.27;9.23;;;;;;;1.97;100.00;102306.47;6340653;28;20044;-70
2022/12/02 13:19:21;;;;;;;29.30;9.75;;;;;;;1.94;100.00;102311.63;6340410;28;20043;-70
2022/12/02 13:22:23;;;;;;;32.83;11.20;;;;;;;1.89;100.00;102308.13;6343976;28;20050;-70
2022/12/02 13:25:24;;;;;;;25.73;10.18;;;;;;;1.94;100.00;102308.16;6349068;28;20533;-70
2022/12/02 13:28:27;;;;;;;25.27;11.25;;;;;;;1.91;100.00;102315.94;6349375;28;20062;-70
2022/12/02 13:31:28;;;;;;;31.35;12.52;;;;;;;1.97;100.00;102306.47;6346593;28;20054;-70
2022/12/02 13:34:30;;;;;;;22.98;9.38;;;;;;;1.90;100.00;102302.06;6349091;28;20517;-70
2022/12/02 13:37:32;;;;;;;30.63;12.20;;;;;;;1.93;100.00;102303.84;6348908;28;20054;-70
2022/12/02 13:40:33;;;;;;;75.75;24.90;;;;;;;1.99;100.00;102302.16;6348796;28;20499;-70
2022/12/02 13:43:36;;;;;;;33.03;11.13;;;;;;;2.00;100.00;102303.91;6348789;28;20048;-70
2022/12/02 13:46:37;;;;;;;24.73;11.32;;;;;;;1.99;100.00;102309.91;6348987;28;20048;-70
2022/12/02 13:49:39;;;;;;;39.00;11.65;;;;;;;2.03;100.00;102309.09;6348618;27;20114;-70
2022/12/02 13:52:40;;;;;;;21.10;8.68;;;;;;;1.98;100.00;102308.19;6337303;28;20523;-70
2022/12/02 13:55:41;;;;;;;30.92;11.70;;;;;;;1.90;100.00;102309.84;6348419;28;20047;-70
2022/12/02 13:58:44;;;;;;;42.00;13.02;;;;;;;1.92;100.00;102302.13;6348838;28;20052;-70
2022/12/02 14:01:46;;;;;;;24.55;9.32;;;;;;;1.92;100.00;102304.69;6347414;28;20491;-70
2022/12/02 14:04:47;;;;;;;23.98;8.45;;;;;;;1.99;100.00;102306.47;6348104;28;20051;-70
2022/12/02 14:07:48;;;;;;;21.00;8.70;;;;;;;2.09;100.00;102309.97;6348517;28;20523;-70